createdAt,value
2019-05-25T00:01:02.515Z,74.00
2019-05-25T00:03:31.036Z,74.00
2019-05-25T00:05:59.502Z,74.30
2019-05-25T00:08:28.041Z,74.50
2019-05-25T00:10:56.503Z,74.70
2019-05-25T00:13:25.055Z,74.90
2019-05-25T00:15:53.636Z,75.00
2019-05-25T00:18:23.134Z,75.00
2019-05-25T00:20:51.683Z,75.40
2019-05-25T00:23:20.162Z,75.30
2019-05-25T00:25:48.664Z,75.60
2019-05-25T00:28:17.116Z,75.50
2019-05-25T00:30:45.599Z,75.70
2019-05-25T00:33:14.089Z,75.70
2019-05-25T00:35:46.353Z,76.00
2019-05-25T00:38:14.858Z,76.30
2019-05-25T00:40:43.346Z,76.40
2019-05-25T00:43:13.471Z,76.20
2019-05-25T00:45:41.914Z,76.20
2019-05-25T00:48:10.401Z,76.40
2019-05-25T00:50:38.864Z,76.70
2019-05-25T00:53:07.381Z,76.60
2019-05-25T00:55:35.863Z,76.60
2019-05-25T00:58:04.785Z,77.50
2019-05-25T01:00:33.349Z,76.60
2019-05-25T01:03:03.157Z,76.60
2019-05-25T01:05:31.959Z,76.60
2019-05-25T01:08:01.953Z,76.60
2019-05-25T01:10:32.234Z,77.30
2019-05-25T01:13:00.776Z,76.60
2019-05-25T01:15:29.328Z,76.70
2019-05-25T01:18:00.964Z,76.80
2019-05-25T01:20:31.027Z,76.80
2019-05-25T01:22:59.496Z,76.90
2019-05-25T01:25:28.033Z,76.80
2019-05-25T01:27:57.670Z,77.20
2019-05-25T01:30:26.159Z,77.00
2019-05-25T01:32:56.174Z,77.00
2019-05-25T01:35:24.771Z,77.10
2019-05-25T01:37:54.372Z,77.00
2019-05-25T01:40:22.823Z,77.10
2019-05-25T01:42:51.334Z,77.40
2019-05-25T01:45:19.932Z,77.50
2019-05-25T01:47:48.411Z,77.60
2019-05-25T01:50:17.570Z,77.60
2019-05-25T01:52:46.032Z,77.70
2019-05-25T01:55:14.633Z,77.60
2019-05-25T01:57:43.130Z,77.60
2019-05-25T02:00:12.291Z,77.60
2019-05-25T02:02:40.768Z,77.70
2019-05-25T02:05:09.677Z,77.80
2019-05-25T02:07:38.475Z,77.90
2019-05-25T02:10:11.229Z,77.80
2019-05-25T02:12:39.759Z,77.80
2019-05-25T02:15:10.172Z,77.90
2019-05-25T02:17:38.696Z,77.90
2019-05-25T02:20:09.410Z,77.90
2019-05-25T02:22:39.856Z,77.90
2019-05-25T02:25:17.581Z,77.90
2019-05-25T02:27:42.205Z,77.90
2019-05-25T02:30:13.139Z,78.10
2019-05-25T02:32:41.602Z,78.20
2019-05-25T02:35:13.173Z,78.40
2019-05-25T02:37:43.651Z,78.50
2019-05-25T02:40:13.634Z,78.60
2019-05-25T02:42:42.112Z,78.60
2019-05-25T02:45:10.698Z,78.60
2019-05-25T02:47:39.155Z,78.70
2019-05-25T02:50:08.061Z,78.70
2019-05-25T02:52:36.633Z,78.70
2019-05-25T02:55:07.828Z,78.70
2019-05-25T02:57:36.358Z,78.80
2019-05-25T03:00:08.340Z,78.70
2019-05-25T03:02:36.890Z,78.60
2019-05-25T03:05:12.104Z,78.60
2019-05-25T03:07:48.316Z,78.60
2019-05-25T03:10:17.072Z,78.60
2019-05-25T03:12:45.658Z,78.50
2019-05-25T03:15:14.386Z,78.40
2019-05-25T03:17:44.577Z,78.50
2019-05-25T03:20:15.034Z,78.50
2019-05-25T03:22:43.579Z,78.50
2019-05-25T03:25:12.278Z,78.60
2019-05-25T03:27:42.195Z,78.70
2019-05-25T03:30:12.675Z,78.80
2019-05-25T03:32:43.477Z,78.80
2019-05-25T03:35:13.950Z,78.70
2019-05-25T03:37:42.402Z,78.80
2019-05-25T03:40:11.093Z,78.80
2019-05-25T03:42:42.324Z,78.90
2019-05-25T03:45:12.204Z,79.00
2019-05-25T03:47:40.653Z,79.10
2019-05-25T03:50:09.263Z,79.20
2019-05-25T03:52:40.043Z,79.40
2019-05-25T03:55:08.604Z,79.40
2019-05-25T03:57:37.082Z,79.40
2019-05-25T04:00:08.500Z,79.50
2019-05-25T04:02:37.004Z,79.60
2019-05-25T04:05:06.305Z,79.60
2019-05-25T04:07:34.846Z,79.70
2019-05-25T04:10:04.116Z,79.80
2019-05-25T04:12:33.710Z,79.90
2019-05-25T04:15:02.440Z,80.00
2019-05-25T04:17:30.892Z,80.00
2019-05-25T04:19:59.375Z,80.00
2019-05-25T04:22:27.818Z,80.00
2019-05-25T04:24:56.286Z,79.80
2019-05-25T04:27:24.779Z,80.00
2019-05-25T04:29:53.305Z,79.90
2019-05-25T04:32:21.766Z,80.00
2019-05-25T04:34:50.244Z,79.90
2019-05-25T04:37:18.817Z,79.70
2019-05-25T04:39:47.340Z,79.60
2019-05-25T04:42:15.796Z,79.40
2019-05-25T04:44:44.365Z,80.10
2019-05-25T04:47:26.489Z,79.00
2019-05-25T04:49:44.659Z,78.80
2019-05-25T04:52:13.115Z,78.50
2019-05-25T04:54:42.589Z,78.20
2019-05-25T04:57:11.102Z,77.90
2019-05-25T04:59:39.636Z,77.50
2019-05-25T05:02:08.166Z,77.00
2019-05-25T05:04:36.697Z,76.50
2019-05-25T05:07:05.415Z,76.30
2019-05-25T05:09:33.872Z,75.90
2019-05-25T05:12:02.366Z,75.40
2019-05-25T05:14:30.900Z,74.90
2019-05-25T05:16:59.432Z,74.50
2019-05-25T05:19:29.519Z,73.80
2019-05-25T05:21:59.305Z,73.40
2019-05-25T05:24:27.795Z,73.10
2019-05-25T05:26:56.627Z,72.90
2019-05-25T05:29:25.122Z,72.90
2019-05-25T05:31:54.960Z,73.10
2019-05-25T05:34:23.442Z,72.90
2019-05-25T05:36:54.118Z,73.10
2019-05-25T05:39:24.311Z,72.90
2019-05-25T05:41:54.701Z,72.70
2019-05-25T05:44:25.005Z,72.60
2019-05-25T05:46:55.458Z,72.50
2019-05-25T05:49:26.064Z,72.40
2019-05-25T05:51:57.324Z,72.40
2019-05-25T05:54:26.037Z,72.50
2019-05-25T05:57:10.799Z,72.40
2019-05-25T05:59:24.729Z,72.20
2019-05-25T06:01:54.565Z,71.80
2019-05-25T06:04:23.021Z,71.30
2019-05-25T06:06:55.067Z,70.80
2019-05-25T06:09:23.511Z,70.00
2019-05-25T06:11:53.781Z,69.20
2019-05-25T06:14:22.307Z,68.90
2019-05-25T06:16:50.762Z,68.50
2019-05-25T06:19:19.224Z,68.30
2019-05-25T06:21:47.725Z,67.90
2019-05-25T06:24:16.175Z,67.40
2019-05-25T06:26:44.627Z,67.30
2019-05-25T06:29:15.712Z,67.00
2019-05-25T06:31:44.161Z,66.70
2019-05-25T06:34:13.792Z,66.40
2019-05-25T06:36:42.269Z,66.10
2019-05-25T06:39:10.862Z,66.10
2019-05-25T06:41:39.341Z,65.80
2019-05-25T06:44:07.920Z,65.50
2019-05-25T06:46:39.881Z,65.50
2019-05-25T06:49:08.161Z,65.60
2019-05-25T06:51:36.647Z,65.60
2019-05-25T06:54:05.321Z,65.80
2019-05-25T06:56:34.224Z,64.90
2019-05-25T06:59:04.400Z,64.90
2019-05-25T07:01:36.043Z,64.80
2019-05-25T07:04:04.567Z,64.70
2019-05-25T07:06:33.035Z,64.40
2019-05-25T07:09:20.843Z,64.10
2019-05-25T07:11:49.319Z,64.30
2019-05-25T07:14:17.787Z,64.10
2019-05-25T07:16:46.264Z,63.80
2019-05-25T07:19:14.759Z,63.60
2019-05-25T07:21:43.363Z,63.60
2019-05-25T07:24:13.784Z,63.40
2019-05-25T07:26:42.257Z,63.50
2019-05-25T07:29:11.667Z,63.20
2019-05-25T07:31:40.191Z,62.80
2019-05-25T07:34:10.181Z,62.80
2019-05-25T07:36:38.649Z,62.40
2019-05-25T07:39:11.448Z,62.30
2019-05-25T07:41:39.928Z,62.00
2019-05-25T07:44:08.481Z,61.60
2019-05-25T07:46:37.003Z,61.30
2019-05-25T07:49:05.534Z,61.10
2019-05-25T07:51:35.574Z,61.10
2019-05-25T07:54:04.122Z,60.70
2019-05-25T07:56:32.628Z,60.20
2019-05-25T07:59:01.116Z,60.60
2019-05-25T08:01:34.641Z,59.70
2019-05-25T08:04:04.756Z,59.70
2019-05-25T08:06:33.212Z,59.50
2019-05-25T08:09:01.688Z,59.00
2019-05-25T08:11:30.248Z,58.70
2019-05-25T08:13:59.504Z,58.70
2019-05-25T08:16:27.965Z,58.30
2019-05-25T08:18:56.469Z,57.60
2019-05-25T08:21:28.516Z,57.20
2019-05-25T08:23:56.982Z,57.10
2019-05-25T08:26:26.704Z,56.40
2019-05-25T08:28:58.018Z,56.20
2019-05-25T08:31:26.490Z,56.60
2019-05-25T08:33:54.970Z,56.50
2019-05-25T08:36:29.652Z,56.20
2019-05-25T08:38:56.527Z,55.90
2019-05-25T08:41:25.051Z,55.60
2019-05-25T08:43:55.182Z,55.60
2019-05-25T08:46:26.343Z,55.60
2019-05-25T08:48:54.836Z,55.20
2019-05-25T08:51:23.854Z,54.70
2019-05-25T08:53:52.314Z,54.30
2019-05-25T08:56:21.840Z,54.20
2019-05-25T08:58:50.359Z,53.80
2019-05-25T09:01:18.834Z,53.10
2019-05-25T09:03:47.305Z,52.20
2019-05-25T09:06:15.763Z,52.10
2019-05-25T09:08:44.283Z,52.20
2019-05-25T09:11:12.815Z,52.10
2019-05-25T09:13:41.265Z,51.80
2019-05-25T09:16:10.337Z,52.40
2019-05-25T09:18:38.878Z,51.90
2019-05-25T09:21:07.408Z,52.50
2019-05-25T09:23:35.871Z,52.40
2019-05-25T09:26:04.780Z,52.70
2019-05-25T09:28:33.299Z,52.90
2019-05-25T09:31:02.867Z,52.80
2019-05-25T09:33:31.454Z,52.20
2019-05-25T09:36:01.554Z,52.10
2019-05-25T09:38:31.211Z,52.10
2019-05-25T09:40:59.744Z,51.90
2019-05-25T09:43:28.194Z,51.90
2019-05-25T09:45:56.651Z,52.00
2019-05-25T09:48:25.243Z,51.90
2019-05-25T09:50:55.130Z,51.70
2019-05-25T09:53:23.585Z,51.40
2019-05-25T09:55:52.159Z,51.00
2019-05-25T09:58:20.616Z,50.00
2019-05-25T10:00:49.085Z,49.60
2019-05-25T10:03:18.104Z,49.10
2019-05-25T10:05:46.553Z,48.50
2019-05-25T10:08:15.043Z,48.10
2019-05-25T10:10:43.562Z,48.40
2019-05-25T10:13:12.039Z,48.10
2019-05-25T10:15:40.515Z,47.80
2019-05-25T10:18:08.959Z,47.70
2019-05-25T10:20:37.415Z,47.40
2019-05-25T10:23:05.899Z,47.10
2019-05-25T10:25:34.349Z,46.60
2019-05-25T10:28:02.816Z,46.10
2019-05-25T10:30:32.858Z,46.20
2019-05-25T10:33:01.322Z,46.20
2019-05-25T10:35:29.835Z,46.40
2019-05-25T10:37:58.316Z,46.70
2019-05-25T10:40:26.776Z,46.80
2019-05-25T10:42:55.240Z,46.50
2019-05-25T10:45:23.856Z,45.90
2019-05-25T10:47:57.285Z,45.80
2019-05-25T10:50:25.598Z,46.20
2019-05-25T10:52:55.673Z,45.90
2019-05-25T10:55:24.141Z,46.20
2019-05-25T10:57:53.957Z,46.50
2019-05-25T11:00:22.674Z,46.40
2019-05-25T11:02:51.199Z,46.20
2019-05-25T11:05:20.155Z,46.30
2019-05-25T11:07:49.759Z,46.20
2019-05-25T11:10:21.383Z,46.10
2019-05-25T11:12:49.855Z,46.00
2019-05-25T11:15:18.453Z,45.90
2019-05-25T11:17:46.926Z,45.70
2019-05-25T11:20:15.896Z,45.80
2019-05-25T11:22:44.501Z,45.90
2019-05-25T11:25:14.674Z,46.00
2019-05-25T11:27:46.016Z,46.40
2019-05-25T11:30:15.107Z,46.60
2019-05-25T11:32:46.460Z,46.30
2019-05-25T11:35:16.175Z,46.00
2019-05-25T11:37:44.738Z,46.10
2019-05-25T11:40:13.791Z,45.90
2019-05-25T11:42:42.273Z,45.20
2019-05-25T11:45:11.358Z,44.80
2019-05-25T11:47:39.817Z,44.80
2019-05-25T11:50:10.597Z,45.00
2019-05-25T11:52:40.821Z,45.10
2019-05-25T11:55:10.056Z,44.50
2019-05-25T11:57:38.837Z,44.70
2019-05-25T12:00:23.830Z,44.50
2019-05-25T12:02:40.632Z,44.20
2019-05-25T12:05:10.942Z,43.90
2019-05-25T12:07:43.639Z,43.50
2019-05-25T12:10:10.645Z,43.00
2019-05-25T12:12:39.110Z,42.50
2019-05-25T12:15:09.513Z,42.40
2019-05-25T12:17:38.052Z,41.90
2019-05-25T12:20:06.980Z,41.70
2019-05-25T12:22:35.557Z,41.70
2019-05-25T12:25:06.200Z,41.70
2019-05-25T12:27:34.847Z,42.00
2019-05-25T12:30:05.931Z,41.60
2019-05-25T12:32:35.941Z,41.50
2019-05-25T12:35:07.699Z,41.40
2019-05-25T12:37:36.166Z,41.60
2019-05-25T12:40:08.440Z,41.10
2019-05-25T12:42:38.862Z,40.80
2019-05-25T12:45:08.599Z,40.40
2019-05-25T12:47:37.262Z,40.40
2019-05-25T12:50:07.697Z,40.60
2019-05-25T12:52:36.181Z,40.40
2019-05-25T12:55:11.763Z,40.30
2019-05-25T12:57:41.773Z,40.40
2019-05-25T13:00:15.967Z,40.10
2019-05-25T13:02:40.677Z,39.90
2019-05-25T13:05:09.335Z,39.50
2019-05-25T13:07:38.009Z,39.50
2019-05-25T13:10:08.784Z,39.70
2019-05-25T13:12:37.261Z,39.60
2019-05-25T13:15:06.888Z,39.30
2019-05-25T13:17:37.924Z,39.40
2019-05-25T13:20:12.114Z,39.00
2019-05-25T13:22:40.673Z,38.70
2019-05-25T13:25:09.468Z,38.70
2019-05-25T13:27:40.491Z,39.00
2019-05-25T13:30:15.429Z,39.10
2019-05-25T13:32:45.024Z,39.30
2019-05-25T13:35:14.174Z,39.70
2019-05-25T13:37:44.719Z,40.00
2019-05-25T13:40:19.573Z,40.50
2019-05-25T13:42:48.145Z,41.30
2019-05-25T13:45:19.405Z,41.70
2019-05-25T13:47:47.929Z,41.90
2019-05-25T13:50:17.359Z,42.20
2019-05-25T13:52:45.888Z,42.60
2019-05-25T13:55:14.422Z,42.90
2019-05-25T13:57:43.174Z,43.20
2019-05-25T14:00:12.212Z,43.60
2019-05-25T14:02:40.664Z,43.60
2019-05-25T14:05:09.381Z,43.70
2019-05-25T14:07:41.285Z,43.60
2019-05-25T14:10:10.872Z,43.30
2019-05-25T14:12:39.343Z,42.80
2019-05-25T14:15:11.611Z,42.80
2019-05-25T14:17:41.416Z,42.00
2019-05-25T14:20:10.316Z,41.70
2019-05-25T14:22:38.887Z,41.90
2019-05-25T14:25:09.075Z,41.20
2019-05-25T14:27:37.712Z,41.00
2019-05-25T14:30:07.004Z,41.00
2019-05-25T14:32:35.597Z,40.80
2019-05-25T14:35:05.403Z,40.70
2019-05-25T14:37:33.867Z,40.30
2019-05-25T14:40:02.428Z,39.70
2019-05-25T14:42:30.910Z,39.40
2019-05-25T14:45:00.347Z,39.00
2019-05-25T14:47:28.880Z,38.80
2019-05-25T14:49:57.361Z,38.40
2019-05-25T14:52:27.426Z,37.30
2019-05-25T14:54:55.903Z,36.00
2019-05-25T14:57:31.263Z,35.30
2019-05-25T14:59:57.053Z,34.40
2019-05-25T15:02:25.549Z,33.20
2019-05-25T15:04:54.014Z,32.70
2019-05-25T15:07:22.524Z,31.80
2019-05-25T15:09:51.008Z,31.40
2019-05-25T15:12:19.573Z,31.20
2019-05-25T15:14:48.132Z,32.10
2019-05-25T15:17:16.681Z,34.00
2019-05-25T15:19:45.184Z,35.00
2019-05-25T15:22:14.697Z,36.10
2019-05-25T15:24:43.346Z,37.20
2019-05-25T15:27:11.883Z,38.40
2019-05-25T15:29:40.523Z,39.20
2019-05-25T15:32:19.420Z,40.00
2019-05-25T15:34:40.406Z,41.60
2019-05-25T15:37:08.934Z,43.00
2019-05-25T15:39:37.958Z,44.20
2019-05-25T15:42:07.442Z,45.10
2019-05-25T15:44:35.968Z,46.00
2019-05-25T15:47:05.187Z,46.50
2019-05-25T15:49:34.123Z,47.30
2019-05-25T15:52:02.579Z,47.80
2019-05-25T15:54:31.132Z,48.30
2019-05-25T15:56:59.686Z,48.60
2019-05-25T15:59:28.224Z,49.20
2019-05-25T16:01:59.512Z,49.30
2019-05-25T16:04:29.881Z,49.30
2019-05-25T16:06:59.382Z,49.20
2019-05-25T16:09:27.981Z,49.10
2019-05-25T16:11:58.074Z,48.80
2019-05-25T16:14:26.607Z,48.30
2019-05-25T16:16:56.657Z,48.40
2019-05-25T16:19:26.416Z,48.10
2019-05-25T16:21:56.438Z,46.50
2019-05-25T16:24:24.969Z,44.40
2019-05-25T16:26:57.616Z,42.30
2019-05-25T16:29:27.375Z,39.80
2019-05-25T16:31:55.890Z,38.10
2019-05-25T16:34:25.152Z,36.90
2019-05-25T16:36:56.487Z,35.50
2019-05-25T16:39:25.119Z,35.10
2019-05-25T16:41:55.228Z,34.60
2019-05-25T16:44:24.119Z,33.60
2019-05-25T16:46:52.621Z,32.90
2019-05-25T16:49:22.496Z,32.60
2019-05-25T16:51:50.961Z,33.40
2019-05-25T16:54:19.448Z,33.40
2019-05-25T16:56:49.457Z,33.90
2019-05-25T16:59:20.702Z,34.70
2019-05-25T17:01:49.250Z,35.30
2019-05-25T17:04:17.813Z,35.00
2019-05-25T17:06:46.315Z,34.70
2019-05-25T17:09:14.795Z,33.60
2019-05-25T17:11:47.058Z,32.80
2019-05-25T17:14:15.595Z,32.10
2019-05-25T17:16:44.095Z,31.60
2019-05-25T17:19:12.593Z,31.70
2019-05-25T17:21:42.788Z,32.10
2019-05-25T17:24:12.507Z,31.80
2019-05-25T17:26:44.155Z,31.20
2019-05-25T17:29:12.649Z,31.20
2019-05-25T17:31:41.167Z,31.30
2019-05-25T17:34:12.619Z,31.50
2019-05-25T17:36:41.076Z,31.60
2019-05-25T17:39:10.878Z,31.70
2019-05-25T17:41:39.347Z,32.40
2019-05-25T17:44:07.910Z,33.00
2019-05-25T17:46:42.251Z,33.80
2019-05-25T17:49:08.193Z,34.60
2019-05-25T17:51:36.978Z,35.80
2019-05-25T17:54:05.548Z,36.70
2019-05-25T17:56:34.915Z,37.50
2019-05-25T17:59:04.815Z,38.10
2019-05-25T18:01:33.320Z,38.60
2019-05-25T18:04:07.192Z,39.40
2019-05-25T18:06:31.997Z,40.10
2019-05-25T18:09:01.562Z,40.90
2019-05-25T18:11:30.085Z,41.80
2019-05-25T18:13:59.586Z,42.50
2019-05-25T18:16:28.072Z,43.10
2019-05-25T18:18:56.544Z,43.60
2019-05-25T18:21:25.071Z,44.10
2019-05-25T18:23:56.272Z,44.80
2019-05-25T18:26:24.862Z,45.30
2019-05-25T18:28:58.274Z,45.80
2019-05-25T18:31:26.812Z,45.90
2019-05-25T18:33:59.407Z,46.40
2019-05-25T18:36:28.032Z,47.30
2019-05-25T18:38:57.131Z,46.90
2019-05-25T18:41:25.581Z,47.30
2019-05-25T18:43:55.146Z,46.90
2019-05-25T18:46:23.671Z,47.00
2019-05-25T18:48:54.526Z,47.30
2019-05-25T18:51:24.651Z,47.50
2019-05-25T18:53:58.254Z,48.00
2019-05-25T18:56:30.840Z,48.60
2019-05-25T18:58:59.345Z,49.10
2019-05-25T19:01:28.852Z,49.50
2019-05-25T19:03:58.375Z,50.00
2019-05-25T19:06:26.879Z,50.30
2019-05-25T19:08:57.288Z,50.70
2019-05-25T19:11:25.767Z,51.00
2019-05-25T19:13:54.265Z,51.50
2019-05-25T19:16:22.728Z,51.80
2019-05-25T19:18:51.254Z,52.10
2019-05-25T19:21:20.771Z,52.60
2019-05-25T19:23:49.354Z,53.00
2019-05-25T19:26:21.000Z,53.40
2019-05-25T19:28:51.638Z,53.90
2019-05-25T19:31:22.254Z,54.10
2019-05-25T19:33:50.736Z,54.40
2019-05-25T19:36:19.266Z,54.80
2019-05-25T19:38:47.719Z,55.00
2019-05-25T19:41:16.206Z,55.40
2019-05-25T19:43:45.079Z,55.50
2019-05-25T19:46:15.338Z,55.90
2019-05-25T19:48:44.352Z,56.10
2019-05-25T19:51:12.869Z,56.30
2019-05-25T19:53:43.621Z,56.60
2019-05-25T19:56:12.192Z,56.90
2019-05-25T19:58:40.662Z,57.10
2019-05-25T20:01:09.144Z,57.50
2019-05-25T20:03:37.697Z,57.90
2019-05-25T20:06:07.464Z,58.50
2019-05-25T20:08:35.922Z,58.80
2019-05-25T20:11:06.914Z,59.20
2019-05-25T20:13:39.876Z,59.40
2019-05-25T20:16:08.510Z,60.00
2019-05-25T20:18:37.023Z,60.20
2019-05-25T20:21:05.556Z,60.60
2019-05-25T20:23:34.015Z,60.90
2019-05-25T20:26:03.494Z,61.10
2019-05-25T20:28:32.557Z,61.30
2019-05-25T20:31:01.071Z,61.50
2019-05-25T20:33:29.541Z,61.80
2019-05-25T20:35:58.018Z,62.10
2019-05-25T20:38:29.364Z,62.40
2019-05-25T20:40:58.143Z,62.60
2019-05-25T20:43:27.284Z,62.60
2019-05-25T20:45:57.356Z,62.70
2019-05-25T20:48:27.372Z,62.80
2019-05-25T20:50:57.181Z,62.90
2019-05-25T20:53:25.651Z,63.10
2019-05-25T20:55:54.192Z,63.10
2019-05-25T20:58:25.207Z,63.10
2019-05-25T21:00:54.798Z,63.20
2019-05-25T21:03:23.303Z,63.40
2019-05-25T21:05:51.861Z,63.50
2019-05-25T21:08:22.082Z,63.60
2019-05-25T21:10:50.558Z,63.90
2019-05-25T21:13:19.042Z,64.10
2019-05-25T21:15:51.344Z,64.20
2019-05-25T21:18:23.393Z,64.30
2019-05-25T21:20:51.889Z,64.30
2019-05-25T21:23:20.503Z,64.30
2019-05-25T21:25:51.667Z,64.50
2019-05-25T21:28:21.996Z,64.80
2019-05-25T21:30:51.636Z,65.10
2019-05-25T21:33:23.253Z,65.20
2019-05-25T21:36:07.126Z,65.20
2019-05-25T21:38:21.980Z,65.60
2019-05-25T21:40:50.438Z,65.90
2019-05-25T21:43:21.013Z,66.10
2019-05-25T21:45:49.471Z,66.40
2019-05-25T21:48:17.981Z,66.70
2019-05-25T21:50:48.066Z,66.80
2019-05-25T21:53:16.581Z,66.90
2019-05-25T21:55:45.124Z,67.30
2019-05-25T21:58:13.596Z,67.30
2019-05-25T22:00:42.133Z,67.30
2019-05-25T22:03:10.612Z,67.30
2019-05-25T22:05:39.874Z,67.40
2019-05-25T22:08:08.404Z,67.40
2019-05-25T22:10:37.005Z,67.50
2019-05-25T22:13:25.293Z,67.60
2019-05-25T22:15:41.712Z,67.80
2019-05-25T22:18:12.284Z,67.90
2019-05-25T22:20:42.050Z,68.00
2019-05-25T22:23:10.594Z,68.10
2019-05-25T22:25:39.082Z,69.10
2019-05-25T22:28:08.743Z,68.50
2019-05-25T22:30:38.544Z,68.50
2019-05-25T22:33:08.642Z,68.60
2019-05-25T22:35:38.638Z,68.70
2019-05-25T22:38:07.356Z,68.90
2019-05-25T22:40:35.894Z,69.20
2019-05-25T22:43:06.775Z,69.30
2019-05-25T22:45:36.871Z,69.50
2019-05-25T22:48:07.730Z,69.70
2019-05-25T22:50:37.581Z,69.90
2019-05-25T22:53:06.110Z,70.00
2019-05-25T22:55:35.316Z,70.10
2019-05-25T22:58:04.868Z,70.20
2019-05-25T23:00:35.441Z,70.20
2019-05-25T23:03:03.911Z,70.10
2019-05-25T23:05:32.374Z,70.10
2019-05-25T23:08:01.090Z,70.30
2019-05-25T23:10:31.988Z,70.40
2019-05-25T23:13:00.489Z,70.40
2019-05-25T23:15:28.981Z,70.50
2019-05-25T23:17:59.692Z,70.40
2019-05-25T23:20:30.020Z,70.50
2019-05-25T23:22:58.532Z,70.50
2019-05-25T23:25:27.035Z,70.60
2019-05-25T23:27:56.990Z,70.60
2019-05-25T23:30:25.517Z,70.50
2019-05-25T23:32:55.639Z,70.60
2019-05-25T23:35:24.132Z,70.60
2019-05-25T23:37:55.009Z,70.60
2019-05-25T23:40:24.608Z,70.60
2019-05-25T23:42:53.064Z,70.60
2019-05-25T23:45:23.261Z,70.70
2019-05-25T23:47:51.794Z,70.70
2019-05-25T23:50:20.341Z,71.60
2019-05-25T23:52:51.931Z,70.70
2019-05-25T23:55:22.449Z,70.70
2019-05-25T23:57:50.723Z,70.80
